sensor_id;sensor_type;location;lat;lon;timestamp;temperature;humidity
1728;DHT22;861;48.808;9.006;2023-01-25T00:01:01;4.50;99.90
1728;DHT22;861;48.808;9.006;2023-01-25T00:03:29;4.40;99.90
1728;DHT22;861;48.808;9.006;2023-01-25T00:05:59;4.50;99.90
1728;DHT22;861;48.808;9.006;2023-01-25T00:08:27;4.50;99.90
1728;DHT22;861;48.808;9.006;2023-01-25T00:10:53;4.50;99.90
1728;DHT22;861;48.808;9.006;2023-01-25T00:13:19;4.50;99.90
1728;DHT22;861;48.808;9.006;2023-01-25T00:15:45;4.50;99.90
1728;DHT22;861;48.808;9.006;2023-01-25T00:18:11;4.50;99.90
1728;DHT22;861;48.808;9.006;2023-01-25T00:20:37;4.40;99.90
1728;DHT22;861;48.808;9.006;2023-01-25T00:23:03;4.50;99.90
1728;DHT22;861;48.808;9.006;2023-01-25T00:25:30;4.50;99.90
1728;DHT22;861;48.808;9.006;2023-01-25T00:27:56;4.50;99.90
1728;DHT22;861;48.808;9.006;2023-01-25T00:30:22;4.50;99.90
1728;DHT22;861;48.808;9.006;2023-01-25T00:35:48;4.50;99.90
1728;DHT22;861;48.808;9.006;2023-01-25T00:38:42;4.70;99.90
1728;DHT22;861;48.808;9.006;2023-01-25T00:41:09;4.50;99.90
1728;DHT22;861;48.808;9.006;2023-01-25T00:43:35;4.50;99.90
1728;DHT22;861;48.808;9.006;2023-01-25T00:46:01;4.50;99.90
1728;DHT22;861;48.808;9.006;2023-01-25T00:48:27;4.50;99.90
1728;DHT22;861;48.808;9.006;2023-01-25T00:50:54;4.60;99.90
1728;DHT22;861;48.808;9.006;2023-01-25T00:53:26;4.70;99.90
1728;DHT22;861;48.808;9.006;2023-01-25T00:55:52;4.60;99.90
1728;DHT22;861;48.808;9.006;2023-01-25T00:58:18;4.50;99.90
1728;DHT22;861;48.808;9.006;2023-01-25T01:00:45;4.50;99.90
1728;DHT22;861;48.808;9.006;2023-01-25T01:03:12;4.60;99.90
1728;DHT22;861;48.808;9.006;2023-01-25T01:05:39;4.50;99.90
1728;DHT22;861;48.808;9.006;2023-01-25T01:08:05;4.70;99.90
1728;DHT22;861;48.808;9.006;2023-01-25T01:10:31;4.80;99.90
1728;DHT22;861;48.808;9.006;2023-01-25T01:12:57;4.70;99.90
1728;DHT22;861;48.808;9.006;2023-01-25T01:15:23;4.50;99.90
1728;DHT22;861;48.808;9.006;2023-01-25T01:17:50;4.70;99.90
1728;DHT22;861;48.808;9.006;2023-01-25T01:20:16;4.60;99.90
1728;DHT22;861;48.808;9.006;2023-01-25T01:22:42;4.60;99.90
1728;DHT22;861;48.808;9.006;2023-01-25T01:25:08;4.50;99.90
1728;DHT22;861;48.808;9.006;2023-01-25T01:27:35;4.50;99.90
1728;DHT22;861;48.808;9.006;2023-01-25T01:30:01;4.30;99.90
1728;DHT22;861;48.808;9.006;2023-01-25T01:32:28;4.40;99.90
1728;DHT22;861;48.808;9.006;2023-01-25T01:34:54;4.40;99.90
1728;DHT22;861;48.808;9.006;2023-01-25T01:37:20;4.40;99.90
1728;DHT22;861;48.808;9.006;2023-01-25T01:39:46;4.40;99.90
1728;DHT22;861;48.808;9.006;2023-01-25T01:42:12;4.50;99.90
1728;DHT22;861;48.808;9.006;2023-01-25T01:44:53;4.40;99.90
1728;DHT22;861;48.808;9.006;2023-01-25T01:47:40;4.50;99.90
1728;DHT22;861;48.808;9.006;2023-01-25T01:50:23;4.60;99.90
1728;DHT22;861;48.808;9.006;2023-01-25T01:52:50;4.50;99.90
1728;DHT22;861;48.808;9.006;2023-01-25T01:55:21;4.50;99.90
1728;DHT22;861;48.808;9.006;2023-01-25T01:57:57;4.60;99.90
1728;DHT22;861;48.808;9.006;2023-01-25T02:00:31;4.50;99.90
1728;DHT22;861;48.808;9.006;2023-01-25T02:03:02;4.50;99.90
1728;DHT22;861;48.808;9.006;2023-01-25T02:08:34;4.50;99.90
1728;DHT22;861;48.808;9.006;2023-01-25T02:11:03;4.50;99.90
1728;DHT22;861;48.808;9.006;2023-01-25T02:13:31;4.50;99.90
1728;DHT22;861;48.808;9.006;2023-01-25T02:16:00;4.70;99.90
1728;DHT22;861;48.808;9.006;2023-01-25T02:18:26;4.70;99.90
1728;DHT22;861;48.808;9.006;2023-01-25T02:20:57;4.70;99.90
1728;DHT22;861;48.808;9.006;2023-01-25T02:23:40;4.50;99.90
1728;DHT22;861;48.808;9.006;2023-01-25T02:26:18;4.40;99.90
1728;DHT22;861;48.808;9.006;2023-01-25T02:29:04;4.30;99.90
1728;DHT22;861;48.808;9.006;2023-01-25T02:31:34;4.30;99.90
1728;DHT22;861;48.808;9.006;2023-01-25T02:34:00;4.40;99.90
1728;DHT22;861;48.808;9.006;2023-01-25T02:36:33;4.50;99.90
1728;DHT22;861;48.808;9.006;2023-01-25T02:39:12;4.30;99.90
1728;DHT22;861;48.808;9.006;2023-01-25T02:41:45;4.20;99.90
1728;DHT22;861;48.808;9.006;2023-01-25T02:44:23;4.20;99.90
1728;DHT22;861;48.808;9.006;2023-01-25T02:46:53;4.40;99.90
1728;DHT22;861;48.808;9.006;2023-01-25T02:49:20;4.50;99.90
1728;DHT22;861;48.808;9.006;2023-01-25T02:51:51;4.50;99.90
1728;DHT22;861;48.808;9.006;2023-01-25T02:54:24;4.50;99.90
1728;DHT22;861;48.808;9.006;2023-01-25T02:56:52;4.40;99.90
1728;DHT22;861;48.808;9.006;2023-01-25T02:59:18;4.40;99.90
1728;DHT22;861;48.808;9.006;2023-01-25T03:01:45;4.40;99.90
1728;DHT22;861;48.808;9.006;2023-01-25T03:04:13;4.40;99.90
1728;DHT22;861;48.808;9.006;2023-01-25T03:06:41;4.30;99.90
1728;DHT22;861;48.808;9.006;2023-01-25T03:09:10;4.30;99.90
1728;DHT22;861;48.808;9.006;2023-01-25T03:11:37;4.30;99.90
1728;DHT22;861;48.808;9.006;2023-01-25T03:14:03;4.20;99.90
1728;DHT22;861;48.808;9.006;2023-01-25T03:16:30;4.20;99.90
1728;DHT22;861;48.808;9.006;2023-01-25T03:18:57;4.10;99.90
1728;DHT22;861;48.808;9.006;2023-01-25T03:21:25;4.10;99.90
1728;DHT22;861;48.808;9.006;2023-01-25T03:23:58;4.20;99.90
1728;DHT22;861;48.808;9.006;2023-01-25T03:26:29;4.20;99.90
1728;DHT22;861;48.808;9.006;2023-01-25T03:28:55;4.40;99.90
1728;DHT22;861;48.808;9.006;2023-01-25T03:31:21;4.60;99.90
1728;DHT22;861;48.808;9.006;2023-01-25T03:33:48;4.50;99.90
1728;DHT22;861;48.808;9.006;2023-01-25T03:36:14;4.40;99.90
1728;DHT22;861;48.808;9.006;2023-01-25T03:38:40;4.40;99.90
1728;DHT22;861;48.808;9.006;2023-01-25T03:41:08;4.20;99.90
1728;DHT22;861;48.808;9.006;2023-01-25T03:43:34;4.30;99.90
1728;DHT22;861;48.808;9.006;2023-01-25T03:46:01;4.30;99.90
1728;DHT22;861;48.808;9.006;2023-01-25T03:48:28;4.30;99.90
1728;DHT22;861;48.808;9.006;2023-01-25T03:50:58;4.20;99.90
1728;DHT22;861;48.808;9.006;2023-01-25T03:53:29;4.10;99.90
1728;DHT22;861;48.808;9.006;2023-01-25T03:56:04;4.20;99.90
1728;DHT22;861;48.808;9.006;2023-01-25T03:58:37;4.30;99.90
1728;DHT22;861;48.808;9.006;2023-01-25T04:01:06;4.40;99.90
1728;DHT22;861;48.808;9.006;2023-01-25T04:03:34;4.30;99.90
1728;DHT22;861;48.808;9.006;2023-01-25T04:06:00;4.30;99.90
1728;DHT22;861;48.808;9.006;2023-01-25T04:08:26;4.30;99.90
1728;DHT22;861;48.808;9.006;2023-01-25T04:10:56;4.00;99.90
1728;DHT22;861;48.808;9.006;2023-01-25T04:13:27;4.00;99.90
1728;DHT22;861;48.808;9.006;2023-01-25T04:15:54;4.10;99.90
1728;DHT22;861;48.808;9.006;2023-01-25T04:18:20;3.90;99.90
1728;DHT22;861;48.808;9.006;2023-01-25T04:20:55;3.80;99.90
1728;DHT22;861;48.808;9.006;2023-01-25T04:23:24;3.80;99.90
1728;DHT22;861;48.808;9.006;2023-01-25T04:26:02;3.90;99.90
1728;DHT22;861;48.808;9.006;2023-01-25T04:28:33;4.00;99.90
1728;DHT22;861;48.808;9.006;2023-01-25T04:31:01;4.00;99.90
1728;DHT22;861;48.808;9.006;2023-01-25T04:33:31;4.10;99.90
1728;DHT22;861;48.808;9.006;2023-01-25T04:35:59;4.10;99.90
1728;DHT22;861;48.808;9.006;2023-01-25T04:38:25;4.00;99.90
1728;DHT22;861;48.808;9.006;2023-01-25T04:40:51;4.10;99.90
1728;DHT22;861;48.808;9.006;2023-01-25T04:43:19;4.00;99.90
1728;DHT22;861;48.808;9.006;2023-01-25T04:45:46;4.00;99.90
1728;DHT22;861;48.808;9.006;2023-01-25T04:48:13;4.00;99.90
1728;DHT22;861;48.808;9.006;2023-01-25T04:50:42;4.00;99.90
1728;DHT22;861;48.808;9.006;2023-01-25T04:53:11;4.00;99.90
1728;DHT22;861;48.808;9.006;2023-01-25T04:55:37;4.00;99.90
1728;DHT22;861;48.808;9.006;2023-01-25T04:58:04;4.00;99.90
1728;DHT22;861;48.808;9.006;2023-01-25T05:00:31;4.10;99.90
1728;DHT22;861;48.808;9.006;2023-01-25T05:02:58;4.00;99.90
1728;DHT22;861;48.808;9.006;2023-01-25T05:05:24;4.00;99.90
1728;DHT22;861;48.808;9.006;2023-01-25T05:07:50;4.00;99.90
1728;DHT22;861;48.808;9.006;2023-01-25T05:10:16;4.10;99.90
1728;DHT22;861;48.808;9.006;2023-01-25T05:12:43;4.00;99.90
1728;DHT22;861;48.808;9.006;2023-01-25T05:15:09;4.10;99.90
1728;DHT22;861;48.808;9.006;2023-01-25T05:17:36;4.10;99.90
1728;DHT22;861;48.808;9.006;2023-01-25T05:20:03;4.10;99.90
1728;DHT22;861;48.808;9.006;2023-01-25T05:22:29;4.10;99.90
1728;DHT22;861;48.808;9.006;2023-01-25T05:24:55;4.20;99.90
1728;DHT22;861;48.808;9.006;2023-01-25T05:27:24;4.10;99.90
1728;DHT22;861;48.808;9.006;2023-01-25T05:29:50;4.30;99.90
1728;DHT22;861;48.808;9.006;2023-01-25T05:32:20;4.20;99.90
1728;DHT22;861;48.808;9.006;2023-01-25T05:34:48;4.10;99.90
1728;DHT22;861;48.808;9.006;2023-01-25T05:37:19;4.20;99.90
1728;DHT22;861;48.808;9.006;2023-01-25T05:39:46;4.20;99.90
1728;DHT22;861;48.808;9.006;2023-01-25T05:42:16;4.10;99.90
1728;DHT22;861;48.808;9.006;2023-01-25T05:44:44;4.10;99.90
1728;DHT22;861;48.808;9.006;2023-01-25T05:47:16;4.10;99.90
1728;DHT22;861;48.808;9.006;2023-01-25T05:49:45;4.00;99.90
1728;DHT22;861;48.808;9.006;2023-01-25T05:52:15;4.00;99.90
1728;DHT22;861;48.808;9.006;2023-01-25T05:54:42;4.00;99.90
1728;DHT22;861;48.808;9.006;2023-01-25T05:57:08;4.00;99.90
1728;DHT22;861;48.808;9.006;2023-01-25T05:59:35;3.90;99.90
1728;DHT22;861;48.808;9.006;2023-01-25T06:02:01;3.90;99.90
1728;DHT22;861;48.808;9.006;2023-01-25T06:04:27;3.90;99.90
1728;DHT22;861;48.808;9.006;2023-01-25T06:06:53;3.80;99.90
1728;DHT22;861;48.808;9.006;2023-01-25T06:09:19;4.00;99.90
1728;DHT22;861;48.808;9.006;2023-01-25T06:11:47;4.00;99.90
1728;DHT22;861;48.808;9.006;2023-01-25T06:14:13;4.10;99.90
1728;DHT22;861;48.808;9.006;2023-01-25T06:16:39;4.10;99.90
1728;DHT22;861;48.808;9.006;2023-01-25T06:19:07;4.20;99.90
1728;DHT22;861;48.808;9.006;2023-01-25T06:21:35;4.30;99.90
1728;DHT22;861;48.808;9.006;2023-01-25T06:24:04;4.30;99.90
1728;DHT22;861;48.808;9.006;2023-01-25T06:26:31;4.30;99.90
1728;DHT22;861;48.808;9.006;2023-01-25T06:28:57;4.40;99.90
1728;DHT22;861;48.808;9.006;2023-01-25T06:31:23;4.30;99.90
1728;DHT22;861;48.808;9.006;2023-01-25T06:33:51;4.30;99.90
1728;DHT22;861;48.808;9.006;2023-01-25T06:36:20;4.30;99.90
1728;DHT22;861;48.808;9.006;2023-01-25T06:38:49;4.30;99.90
1728;DHT22;861;48.808;9.006;2023-01-25T06:41:19;4.30;99.90
1728;DHT22;861;48.808;9.006;2023-01-25T06:43:46;4.40;99.90
1728;DHT22;861;48.808;9.006;2023-01-25T06:46:15;4.40;99.90
1728;DHT22;861;48.808;9.006;2023-01-25T06:48:41;4.30;99.90
1728;DHT22;861;48.808;9.006;2023-01-25T06:51:11;4.40;99.90
1728;DHT22;861;48.808;9.006;2023-01-25T06:53:42;4.20;99.90
1728;DHT22;861;48.808;9.006;2023-01-25T06:56:19;4.20;99.90
1728;DHT22;861;48.808;9.006;2023-01-25T06:58:48;4.20;99.90
1728;DHT22;861;48.808;9.006;2023-01-25T07:01:19;4.10;99.90
1728;DHT22;861;48.808;9.006;2023-01-25T07:03:55;4.20;99.90
1728;DHT22;861;48.808;9.006;2023-01-25T07:06:31;4.20;99.90
1728;DHT22;861;48.808;9.006;2023-01-25T07:09:07;4.20;99.90
1728;DHT22;861;48.808;9.006;2023-01-25T07:11:37;4.20;99.90
1728;DHT22;861;48.808;9.006;2023-01-25T07:14:05;4.30;99.90
1728;DHT22;861;48.808;9.006;2023-01-25T07:16:32;4.30;99.90
1728;DHT22;861;48.808;9.006;2023-01-25T07:19:11;4.30;99.90
1728;DHT22;861;48.808;9.006;2023-01-25T07:21:42;4.20;99.90
1728;DHT22;861;48.808;9.006;2023-01-25T07:24:15;4.30;99.90
1728;DHT22;861;48.808;9.006;2023-01-25T07:26:44;4.20;99.90
1728;DHT22;861;48.808;9.006;2023-01-25T07:29:15;4.20;99.90
1728;DHT22;861;48.808;9.006;2023-01-25T07:31:41;4.20;99.90
1728;DHT22;861;48.808;9.006;2023-01-25T07:34:10;4.20;99.90
1728;DHT22;861;48.808;9.006;2023-01-25T07:36:38;4.20;99.90
1728;DHT22;861;48.808;9.006;2023-01-25T07:39:06;4.10;99.90
1728;DHT22;861;48.808;9.006;2023-01-25T07:41:35;4.30;99.90
1728;DHT22;861;48.808;9.006;2023-01-25T07:44:02;4.30;99.90
1728;DHT22;861;48.808;9.006;2023-01-25T07:46:28;4.40;99.90
1728;DHT22;861;48.808;9.006;2023-01-25T07:48:54;4.50;99.90
1728;DHT22;861;48.808;9.006;2023-01-25T07:51:23;4.40;99.90
1728;DHT22;861;48.808;9.006;2023-01-25T07:54:02;4.50;99.90
1728;DHT22;861;48.808;9.006;2023-01-25T07:56:33;4.50;99.90
1728;DHT22;861;48.808;9.006;2023-01-25T07:59:05;4.50;99.90
1728;DHT22;861;48.808;9.006;2023-01-25T08:01:35;4.40;99.90
1728;DHT22;861;48.808;9.006;2023-01-25T08:04:03;4.40;99.90
1728;DHT22;861;48.808;9.006;2023-01-25T08:06:35;4.30;99.90
1728;DHT22;861;48.808;9.006;2023-01-25T08:09:13;4.50;99.90
1728;DHT22;861;48.808;9.006;2023-01-25T08:11:45;4.50;99.90
1728;DHT22;861;48.808;9.006;2023-01-25T08:14:14;4.40;99.90
1728;DHT22;861;48.808;9.006;2023-01-25T08:19:08;4.20;99.90
1728;DHT22;861;48.808;9.006;2023-01-25T08:21:36;4.30;99.90
1728;DHT22;861;48.808;9.006;2023-01-25T08:24:06;4.20;99.90
1728;DHT22;861;48.808;9.006;2023-01-25T08:26:34;4.20;99.90
1728;DHT22;861;48.808;9.006;2023-01-25T08:29:04;4.10;99.90
1728;DHT22;861;48.808;9.006;2023-01-25T08:31:34;4.10;99.90
1728;DHT22;861;48.808;9.006;2023-01-25T08:34:01;4.20;99.90
1728;DHT22;861;48.808;9.006;2023-01-25T08:36:29;4.20;99.90
1728;DHT22;861;48.808;9.006;2023-01-25T08:38:59;4.20;99.90
1728;DHT22;861;48.808;9.006;2023-01-25T08:41:33;4.10;99.90
1728;DHT22;861;48.808;9.006;2023-01-25T08:44:00;4.20;99.90
1728;DHT22;861;48.808;9.006;2023-01-25T08:46:31;4.10;99.90
1728;DHT22;861;48.808;9.006;2023-01-25T08:49:01;4.00;99.90
1728;DHT22;861;48.808;9.006;2023-01-25T08:51:30;3.90;99.90
1728;DHT22;861;48.808;9.006;2023-01-25T08:54:05;3.90;99.90
1728;DHT22;861;48.808;9.006;2023-01-25T08:56:42;4.00;99.90
1728;DHT22;861;48.808;9.006;2023-01-25T08:59:12;4.00;99.90
1728;DHT22;861;48.808;9.006;2023-01-25T09:01:39;4.00;99.90
1728;DHT22;861;48.808;9.006;2023-01-25T09:04:05;4.00;99.90
1728;DHT22;861;48.808;9.006;2023-01-25T09:06:32;4.10;99.90
1728;DHT22;861;48.808;9.006;2023-01-25T09:08:59;4.00;99.90
1728;DHT22;861;48.808;9.006;2023-01-25T09:11:25;4.00;99.90
1728;DHT22;861;48.808;9.006;2023-01-25T09:13:52;4.10;99.90
1728;DHT22;861;48.808;9.006;2023-01-25T09:16:22;4.10;99.90
1728;DHT22;861;48.808;9.006;2023-01-25T09:18:56;4.10;99.90
1728;DHT22;861;48.808;9.006;2023-01-25T09:21:25;4.20;99.90
1728;DHT22;861;48.808;9.006;2023-01-25T09:23:53;4.30;99.90
1728;DHT22;861;48.808;9.006;2023-01-25T09:26:21;4.20;99.90
1728;DHT22;861;48.808;9.006;2023-01-25T09:28:50;4.30;99.90
1728;DHT22;861;48.808;9.006;2023-01-25T09:31:20;4.20;99.90
1728;DHT22;861;48.808;9.006;2023-01-25T09:33:47;4.10;99.90
1728;DHT22;861;48.808;9.006;2023-01-25T09:36:16;4.10;99.90
1728;DHT22;861;48.808;9.006;2023-01-25T09:38:43;4.10;99.90
1728;DHT22;861;48.808;9.006;2023-01-25T09:45:15;4.10;99.90
1728;DHT22;861;48.808;9.006;2023-01-25T09:48:26;4.00;99.90
1728;DHT22;861;48.808;9.006;2023-01-25T09:51:24;4.10;99.90
1728;DHT22;861;48.808;9.006;2023-01-25T09:54:09;4.10;99.90
1728;DHT22;861;48.808;9.006;2023-01-25T09:56:39;4.20;99.90
1728;DHT22;861;48.808;9.006;2023-01-25T09:59:15;4.10;99.90
1728;DHT22;861;48.808;9.006;2023-01-25T10:02:04;4.20;99.90
1728;DHT22;861;48.808;9.006;2023-01-25T10:05:15;4.20;99.90
1728;DHT22;861;48.808;9.006;2023-01-25T10:11:05;4.00;99.90
1728;DHT22;861;48.808;9.006;2023-01-25T10:13:45;4.10;99.90
1728;DHT22;861;48.808;9.006;2023-01-25T10:29:07;4.30;99.90
1728;DHT22;861;48.808;9.006;2023-01-25T10:34:47;4.20;99.90
1728;DHT22;861;48.808;9.006;2023-01-25T10:37:31;4.20;99.90
1728;DHT22;861;48.808;9.006;2023-01-25T10:40:14;4.30;99.90
1728;DHT22;861;48.808;9.006;2023-01-25T10:43:10;4.40;99.90
1728;DHT22;861;48.808;9.006;2023-01-25T10:45:45;4.50;99.90
1728;DHT22;861;48.808;9.006;2023-01-25T10:48:20;4.30;99.90
1728;DHT22;861;48.808;9.006;2023-01-25T10:50:55;4.40;99.90
1728;DHT22;861;48.808;9.006;2023-01-25T10:58:36;4.60;99.90
1728;DHT22;861;48.808;9.006;2023-01-25T11:01:28;4.50;99.90
1728;DHT22;861;48.808;9.006;2023-01-25T11:03:59;4.50;99.90
1728;DHT22;861;48.808;9.006;2023-01-25T11:06:38;4.50;99.90
1728;DHT22;861;48.808;9.006;2023-01-25T11:12:16;4.50;99.90
1728;DHT22;861;48.808;9.006;2023-01-25T11:14:48;4.40;99.90
1728;DHT22;861;48.808;9.006;2023-01-25T11:17:25;4.50;99.90
1728;DHT22;861;48.808;9.006;2023-01-25T11:20:19;4.40;99.90
1728;DHT22;861;48.808;9.006;2023-01-25T11:22:53;4.30;99.90
1728;DHT22;861;48.808;9.006;2023-01-25T11:25:31;4.10;99.90
1728;DHT22;861;48.808;9.006;2023-01-25T11:28:14;4.10;99.90
1728;DHT22;861;48.808;9.006;2023-01-25T11:30:50;4.00;99.90
1728;DHT22;861;48.808;9.006;2023-01-25T11:33:21;4.10;99.90
1728;DHT22;861;48.808;9.006;2023-01-25T11:36:13;4.20;99.90
1728;DHT22;861;48.808;9.006;2023-01-25T11:42:11;4.10;99.90
1728;DHT22;861;48.808;9.006;2023-01-25T11:48:53;3.90;99.90
1728;DHT22;861;48.808;9.006;2023-01-25T11:52:01;4.10;99.90
1728;DHT22;861;48.808;9.006;2023-01-25T12:15:37;4.00;99.90
1728;DHT22;861;48.808;9.006;2023-01-25T12:19:18;4.00;99.90
1728;DHT22;861;48.808;9.006;2023-01-25T12:22:35;4.00;99.90
1728;DHT22;861;48.808;9.006;2023-01-25T12:25:52;4.10;99.90
1728;DHT22;861;48.808;9.006;2023-01-25T12:29:02;4.20;99.90
1728;DHT22;861;48.808;9.006;2023-01-25T12:32:30;4.20;99.90
1728;DHT22;861;48.808;9.006;2023-01-25T12:35:40;4.20;99.90
1728;DHT22;861;48.808;9.006;2023-01-25T12:41:47;4.40;99.90
1728;DHT22;861;48.808;9.006;2023-01-25T12:44:35;4.40;99.90
1728;DHT22;861;48.808;9.006;2023-01-25T12:47:24;4.20;99.90
1728;DHT22;861;48.808;9.006;2023-01-25T12:53:12;4.20;99.90
1728;DHT22;861;48.808;9.006;2023-01-25T12:56:12;4.20;99.90
1728;DHT22;861;48.808;9.006;2023-01-25T13:11:40;4.10;99.90
1728;DHT22;861;48.808;9.006;2023-01-25T13:17:29;4.00;99.90
1728;DHT22;861;48.808;9.006;2023-01-25T13:19:58;3.90;99.90
1728;DHT22;861;48.808;9.006;2023-01-25T13:27:48;4.00;99.90
1728;DHT22;861;48.808;9.006;2023-01-25T13:35:42;4.20;99.90
1728;DHT22;861;48.808;9.006;2023-01-25T13:38:31;4.00;99.90
1728;DHT22;861;48.808;9.006;2023-01-25T13:41:16;4.20;99.90
1728;DHT22;861;48.808;9.006;2023-01-25T13:43:47;4.10;99.90
1728;DHT22;861;48.808;9.006;2023-01-25T13:46:33;4.10;99.90
1728;DHT22;861;48.808;9.006;2023-01-25T13:49:04;4.20;99.90
1728;DHT22;861;48.808;9.006;2023-01-25T13:51:42;4.20;99.90
1728;DHT22;861;48.808;9.006;2023-01-25T13:54:15;4.10;99.90
1728;DHT22;861;48.808;9.006;2023-01-25T13:56:42;4.10;99.90
1728;DHT22;861;48.808;9.006;2023-01-25T13:59:26;4.20;99.90
1728;DHT22;861;48.808;9.006;2023-01-25T14:01:53;4.20;99.90
1728;DHT22;861;48.808;9.006;2023-01-25T14:04:20;4.30;99.90
1728;DHT22;861;48.808;9.006;2023-01-25T14:06:47;4.30;99.90
1728;DHT22;861;48.808;9.006;2023-01-25T14:09:18;4.30;99.90
1728;DHT22;861;48.808;9.006;2023-01-25T14:11:58;4.30;99.90
1728;DHT22;861;48.808;9.006;2023-01-25T14:14:32;4.40;99.90
1728;DHT22;861;48.808;9.006;2023-01-25T14:17:20;4.40;99.90
1728;DHT22;861;48.808;9.006;2023-01-25T14:19:53;4.40;99.90
1728;DHT22;861;48.808;9.006;2023-01-25T14:22:31;4.30;99.90
1728;DHT22;861;48.808;9.006;2023-01-25T14:25:21;4.30;99.90
1728;DHT22;861;48.808;9.006;2023-01-25T14:28:05;4.10;99.90
1728;DHT22;861;48.808;9.006;2023-01-25T14:30:34;4.00;99.90
1728;DHT22;861;48.808;9.006;2023-01-25T14:36:04;4.10;99.90
1728;DHT22;861;48.808;9.006;2023-01-25T14:38:42;4.30;99.90
1728;DHT22;861;48.808;9.006;2023-01-25T14:41:18;4.50;99.90
1728;DHT22;861;48.808;9.006;2023-01-25T14:44:15;4.30;99.90
1728;DHT22;861;48.808;9.006;2023-01-25T14:46:44;4.30;99.90
1728;DHT22;861;48.808;9.006;2023-01-25T14:49:36;4.20;99.90
1728;DHT22;861;48.808;9.006;2023-01-25T14:52:16;4.00;99.90
1728;DHT22;861;48.808;9.006;2023-01-25T14:54:55;4.10;99.90
1728;DHT22;861;48.808;9.006;2023-01-25T14:57:40;4.20;99.90
1728;DHT22;861;48.808;9.006;2023-01-25T15:02:54;4.20;99.90
1728;DHT22;861;48.808;9.006;2023-01-25T15:05:30;4.20;99.90
1728;DHT22;861;48.808;9.006;2023-01-25T15:10:49;4.20;99.90
1728;DHT22;861;48.808;9.006;2023-01-25T15:13:25;4.70;99.90
1728;DHT22;861;48.808;9.006;2023-01-25T15:16:02;4.40;99.90
1728;DHT22;861;48.808;9.006;2023-01-25T15:18:53;4.40;99.90
1728;DHT22;861;48.808;9.006;2023-01-25T15:21:31;4.30;99.90
1728;DHT22;861;48.808;9.006;2023-01-25T15:24:02;4.30;99.90
1728;DHT22;861;48.808;9.006;2023-01-25T15:26:36;4.40;99.90
1728;DHT22;861;48.808;9.006;2023-01-25T15:29:13;4.10;99.90
1728;DHT22;861;48.808;9.006;2023-01-25T15:31:47;4.20;99.90
1728;DHT22;861;48.808;9.006;2023-01-25T15:34:26;4.10;99.90
1728;DHT22;861;48.808;9.006;2023-01-25T15:36:59;4.20;99.90
1728;DHT22;861;48.808;9.006;2023-01-25T15:39:26;4.40;99.90
1728;DHT22;861;48.808;9.006;2023-01-25T15:41:53;4.30;99.90
1728;DHT22;861;48.808;9.006;2023-01-25T15:44:19;4.20;99.90
1728;DHT22;861;48.808;9.006;2023-01-25T15:46:50;4.20;99.90
1728;DHT22;861;48.808;9.006;2023-01-25T15:49:25;4.30;99.90
1728;DHT22;861;48.808;9.006;2023-01-25T15:51:55;4.40;99.90
1728;DHT22;861;48.808;9.006;2023-01-25T15:54:22;4.40;99.90
1728;DHT22;861;48.808;9.006;2023-01-25T15:56:55;4.30;99.90
1728;DHT22;861;48.808;9.006;2023-01-25T15:59:24;4.20;99.90
1728;DHT22;861;48.808;9.006;2023-01-25T16:01:51;3.90;99.90
1728;DHT22;861;48.808;9.006;2023-01-25T16:04:18;3.80;99.90
1728;DHT22;861;48.808;9.006;2023-01-25T16:06:48;3.80;99.90
1728;DHT22;861;48.808;9.006;2023-01-25T16:09:24;3.60;99.90
1728;DHT22;861;48.808;9.006;2023-01-25T16:11:59;3.60;99.90
1728;DHT22;861;48.808;9.006;2023-01-25T16:14:29;3.60;99.90
1728;DHT22;861;48.808;9.006;2023-01-25T16:16:59;3.60;99.90
1728;DHT22;861;48.808;9.006;2023-01-25T16:19:31;3.80;99.90
1728;DHT22;861;48.808;9.006;2023-01-25T16:21:58;3.90;99.90
1728;DHT22;861;48.808;9.006;2023-01-25T16:24:25;4.00;99.90
1728;DHT22;861;48.808;9.006;2023-01-25T16:26:57;4.10;99.90
1728;DHT22;861;48.808;9.006;2023-01-25T16:29:26;4.20;99.90
1728;DHT22;861;48.808;9.006;2023-01-25T16:31:53;4.10;99.90
1728;DHT22;861;48.808;9.006;2023-01-25T16:34:21;4.10;99.90
1728;DHT22;861;48.808;9.006;2023-01-25T16:36:49;4.00;99.90
1728;DHT22;861;48.808;9.006;2023-01-25T16:39:23;3.90;99.90
1728;DHT22;861;48.808;9.006;2023-01-25T16:41:54;4.00;99.90
1728;DHT22;861;48.808;9.006;2023-01-25T16:44:23;4.30;99.90
1728;DHT22;861;48.808;9.006;2023-01-25T16:46:50;4.20;99.90
1728;DHT22;861;48.808;9.006;2023-01-25T16:49:25;4.30;99.90
1728;DHT22;861;48.808;9.006;2023-01-25T16:52:01;4.20;99.90
1728;DHT22;861;48.808;9.006;2023-01-25T16:54:28;4.20;99.90
1728;DHT22;861;48.808;9.006;2023-01-25T16:56:54;4.40;99.90
1728;DHT22;861;48.808;9.006;2023-01-25T16:59:23;4.10;99.90
1728;DHT22;861;48.808;9.006;2023-01-25T17:01:51;4.00;99.90
1728;DHT22;861;48.808;9.006;2023-01-25T17:04:18;4.00;99.90
1728;DHT22;861;48.808;9.006;2023-01-25T17:06:48;3.60;99.90
1728;DHT22;861;48.808;9.006;2023-01-25T17:09:18;3.50;99.90
1728;DHT22;861;48.808;9.006;2023-01-25T17:11:45;3.50;99.90
1728;DHT22;861;48.808;9.006;2023-01-25T17:14:16;3.60;99.90
1728;DHT22;861;48.808;9.006;2023-01-25T17:16:47;3.50;99.90
1728;DHT22;861;48.808;9.006;2023-01-25T17:19:16;3.70;99.90
1728;DHT22;861;48.808;9.006;2023-01-25T17:21:45;3.20;99.90
1728;DHT22;861;48.808;9.006;2023-01-25T17:24:17;3.50;99.90
1728;DHT22;861;48.808;9.006;2023-01-25T17:26:46;3.70;99.90
1728;DHT22;861;48.808;9.006;2023-01-25T17:29:12;3.60;99.90
1728;DHT22;861;48.808;9.006;2023-01-25T17:31:39;3.70;99.90
1728;DHT22;861;48.808;9.006;2023-01-25T17:34:11;3.80;99.90
1728;DHT22;861;48.808;9.006;2023-01-25T17:36:42;3.80;99.90
1728;DHT22;861;48.808;9.006;2023-01-25T17:39:13;3.80;99.90
1728;DHT22;861;48.808;9.006;2023-01-25T17:41:47;3.80;99.90
1728;DHT22;861;48.808;9.006;2023-01-25T17:44:22;3.80;99.90
1728;DHT22;861;48.808;9.006;2023-01-25T17:46:50;3.80;99.90
1728;DHT22;861;48.808;9.006;2023-01-25T17:49:18;3.70;99.90
1728;DHT22;861;48.808;9.006;2023-01-25T17:51:48;3.70;99.90
1728;DHT22;861;48.808;9.006;2023-01-25T17:54:15;3.90;99.90
1728;DHT22;861;48.808;9.006;2023-01-25T17:56:42;4.00;99.90
1728;DHT22;861;48.808;9.006;2023-01-25T17:59:08;4.00;99.90
1728;DHT22;861;48.808;9.006;2023-01-25T18:01:37;3.90;99.90
1728;DHT22;861;48.808;9.006;2023-01-25T18:04:08;4.00;99.90
1728;DHT22;861;48.808;9.006;2023-01-25T18:06:35;4.10;99.90
1728;DHT22;861;48.808;9.006;2023-01-25T18:09:04;4.20;99.90
1728;DHT22;861;48.808;9.006;2023-01-25T18:11:35;4.20;99.90
1728;DHT22;861;48.808;9.006;2023-01-25T18:14:10;4.20;99.90
1728;DHT22;861;48.808;9.006;2023-01-25T18:16:43;4.20;99.90
1728;DHT22;861;48.808;9.006;2023-01-25T18:19:10;4.00;99.90
1728;DHT22;861;48.808;9.006;2023-01-25T18:21:40;3.90;99.90
1728;DHT22;861;48.808;9.006;2023-01-25T18:27:19;3.90;99.90
1728;DHT22;861;48.808;9.006;2023-01-25T18:32:46;3.80;99.90
1728;DHT22;861;48.808;9.006;2023-01-25T18:35:12;3.80;99.90
1728;DHT22;861;48.808;9.006;2023-01-25T18:37:39;3.90;99.90
1728;DHT22;861;48.808;9.006;2023-01-25T18:40:11;3.80;99.90
1728;DHT22;861;48.808;9.006;2023-01-25T18:42:40;3.90;99.90
1728;DHT22;861;48.808;9.006;2023-01-25T18:45:08;3.90;99.90
1728;DHT22;861;48.808;9.006;2023-01-25T18:47:35;4.00;99.90
1728;DHT22;861;48.808;9.006;2023-01-25T18:50:02;4.10;99.90
1728;DHT22;861;48.808;9.006;2023-01-25T18:52:33;4.00;99.90
1728;DHT22;861;48.808;9.006;2023-01-25T18:55:01;4.10;99.90
1728;DHT22;861;48.808;9.006;2023-01-25T18:57:27;4.40;99.90
1728;DHT22;861;48.808;9.006;2023-01-25T18:59:53;4.30;99.90
1728;DHT22;861;48.808;9.006;2023-01-25T19:02:20;4.20;99.90